YBBN/BNE METAR and TAF weather

Enter ICAO airport designator
Station Type Date Time Source
YBBN METAR 2021/01/27 13:00 UTC NOAA

YBBN 271300Z 08007KT 9999 BKN020 26/22 Q1011


Station Type Date Time Source
YBBN Decoded METAR 2021/01/27 13:00 UTC NOAA

Brisbane Airport M. O, Australia (YBBN) 27-23S 153-06E 5M
Jan 27, 2021 - 08:00 AM EST / 2021.01.27 1300 UTC
Wind: from the E (080 degrees) at 8 MPH (7 KT):0
Visibility: greater than 7 mile(s):0
Sky conditions: mostly cloudy
Temperature: 78 F (26 C)
Dew Point: 71 F (22 C)
Relative Humidity: 78%
Pressure (altimeter): 29.85 in. Hg (1011 hPa)
ob: YBBN 271300Z 08007KT 9999 BKN020 26/22 Q1011
cycle: 13

Station Type Date Time Source
YBBN TAF 2021/01/27 12:33 UTC NOAA

TAF YBBN 271101Z 2712/2818 06008KT 9999 SCT025
FM271400 16006KT 9999 -SHRA SCT020 BKN035
FM272300 12014KT 9999 -SHRA SCT025 BKN045
FM281400 16007KT 9999 -SHRA SCT020 BKN035 INTER 2718/2804 4000 SHRA BKN015 INTER 2812/2818 4000 SHRA BKN015

Example: see airport list